Strona główna
METAR-TAF:

METAR-TAF

Lotnisko :

Wellsville Municipal Airport (Tarantine Field)

Wellsville, Nowy Jork, Stany Zjednoczone

Szerokość geograficzna: 42-06-27N, Długość geograficzna: 077-59-04W, wysokość: 647 m

Aktualna obserwacja pogody

Raport powstał 39 minut temu, godzina 11:56 UTC
Wiatr 7 kt od zachodnio-południowy zachód w porywach dochodzący do 15 kt
Temperatura 19°C
Wilgotność 94%
Ciśnienie 1012 hPa
Widzialność: 16.1 km
Mało chmury na wysokości 1300 ft
Rozproszone chmury na wysokości 5500 ft

METAR: KELZ 251156Z AUTO 24007G15KT 10SM FEW013 SCT055 19/18 A2987 RMK AO2 SLP100 60025 70032 T01890183 10206 20178 51024

czas: 08:35 (12:35 UTC)


TAF: brakujący

Obserwacja i prognoza pogody dla ponad 4000 lotnisk (raport METAR i TAF).

Dostępne stacje oznaczono żółtymi i czerwonymi punktami na mapie.

Najedź kursorem aby zobaczyć nazwę stacji.

Kliknij aby zobaczyć obserwacje i prognozy pogody.

Aby zmienić mapę: kliknij na zielony przycisk z czarnym krzyżykiem, aby powiększyć; na zielony przycisk z myślnikiem, aby pomniejszyć; na zielone strzałki, aby przejść do map sąsiednich.


METAR-TAF: